Time;durP1;ratioP1;P1;durP2;ratioP2;P2;SDS_P1;SDS_P2;PMS_P1;PMS_P2;Temp;Humidity;BMP_temperature;BMP_pressure;BME280_temperature;BME280_humidity;BME280_pressure;Samples;Min_cycle;Max_cycle;Signal;HPM_P1;HPM_P2
2023/10/12 00:03:59;;;;;;;11.75;5.80;;;;;18.10;100803.00;;;;10411390;28;20206;-71
2023/10/12 00:09:09;;;;;;;9.82;5.45;;;;;18.10;100812.00;;;;10406097;28;20891;-72
2023/10/12 00:14:14;;;;;;;10.07;5.50;;;;;18.10;100804.00;;;;10409221;28;20684;-71
2023/10/12 00:19:16;;;;;;;8.10;5.90;;;;;18.10;100808.00;;;;10402566;28;20849;-69
2023/10/12 00:24:18;;;;;;;9.40;5.28;;;;;18.00;100803.00;;;;10413456;28;20567;-72
2023/10/12 00:29:22;;;;;;;9.10;5.15;;;;;18.00;100816.00;;;;10408235;28;20870;-72
2023/10/12 00:34:27;;;;;;;13.40;5.90;;;;;18.00;100812.00;;;;10406922;28;20592;-71
2023/10/12 00:39:57;;;;;;;11.48;6.18;;;;;18.00;100846.00;;;;10405175;28;20264;-71
2023/10/12 00:45:14;;;;;;;11.82;5.88;;;;;17.90;100839.00;;;;10407837;28;20211;-70
2023/10/12 00:50:16;;;;;;;10.80;6.28;;;;;17.70;100839.00;;;;10404088;28;20763;-70
2023/10/12 00:55:21;;;;;;;12.50;6.40;;;;;17.60;100852.00;;;;10400919;28;20218;-70
2023/10/12 01:00:25;;;;;;;10.55;6.70;;;;;17.50;100855.00;;;;10417573;28;20776;-70
2023/10/12 01:05:34;;;;;;;11.18;5.93;;;;;17.40;100868.00;;;;10410718;28;20329;-71
2023/10/12 01:10:40;;;;;;;10.02;6.65;;;;;17.10;100857.00;;;;10405912;28;20839;-71
2023/10/12 01:15:46;;;;;;;14.18;7.03;;;;;16.80;100869.00;;;;10411688;28;20221;-71
2023/10/12 01:20:49;;;;;;;15.07;7.60;;;;;16.50;100876.00;;;;10405140;28;20210;-69
2023/10/12 01:25:51;;;;;;;18.55;8.73;;;;;16.30;100874.00;;;;10417376;28;20235;-71
2023/10/12 01:30:54;;;;;;;11.48;8.82;;;;;16.10;100869.00;;;;10410669;28;20619;-69
2023/10/12 01:35:56;;;;;;;12.13;8.93;;;;;16.00;100860.00;;;;10414478;28;20211;-70
2023/10/12 01:40:58;;;;;;;13.40;8.82;;;;;16.00;100861.00;;;;10416780;28;20836;-70
2023/10/12 01:46:04;;;;;;;13.45;8.55;;;;;15.90;100875.00;;;;10416868;28;20230;-70
2023/10/12 01:51:14;;;;;;;18.33;8.43;;;;;15.90;100846.00;;;;10418003;28;20202;-70
2023/10/12 01:56:16;;;;;;;12.93;8.25;;;;;15.80;100787.00;;;;10412600;28;20214;-71
2023/10/12 02:01:18;;;;;;;16.85;9.50;;;;;15.70;100764.00;;;;10411522;28;20217;-70
2023/10/12 02:06:28;;;;;;;17.65;8.95;;;;;15.70;100769.00;;;;10421271;28;20217;-71
2023/10/12 02:11:42;;;;;;;18.52;10.20;;;;;15.60;100746.00;;;;10413252;28;20203;-70
2023/10/12 02:16:53;;;;;;;16.55;10.18;;;;;15.60;100806.00;;;;10414539;28;20211;-71
2023/10/12 02:22:01;;;;;;;14.02;9.70;;;;;15.60;100864.00;;;;10415125;28;20256;-72
2023/10/12 02:27:04;;;;;;;18.27;10.63;;;;;15.50;100849.00;;;;10413031;28;20229;-70
2023/10/12 02:32:22;;;;;;;18.80;11.48;;;;;15.50;100804.00;;;;10413456;28;20211;-72
2023/10/12 02:37:25;;;;;;;15.52;11.60;;;;;15.50;100777.00;;;;10419444;28;20218;-71
2023/10/12 02:42:39;;;;;;;20.92;10.80;;;;;15.50;100766.00;;;;10416424;28;20203;-71
2023/10/12 02:47:42;;;;;;;13.38;10.63;;;;;15.50;100758.00;;;;10417603;28;20821;-72
2023/10/12 02:52:44;;;;;;;18.73;11.57;;;;;15.50;100768.00;;;;10411405;28;20294;-71
2023/10/12 02:57:54;;;;;;;12.73;9.90;;;;;15.50;100738.00;;;;10421317;28;20297;-70
2023/10/12 03:02:58;;;;;;;17.85;11.63;;;;;15.50;100735.00;;;;10418932;28;20233;-70
2023/10/12 03:08:06;;;;;;;12.45;10.07;;;;;15.50;100764.00;;;;10418572;28;20249;-71
2023/10/12 03:13:19;;;;;;;20.20;10.50;;;;;15.40;100809.00;;;;10419419;28;20809;-72
2023/10/12 03:18:26;;;;;;;16.73;10.93;;;;;15.40;100802.00;;;;10409545;28;20619;-71
2023/10/12 03:23:29;;;;;;;14.77;10.80;;;;;15.30;100818.00;;;;10413502;28;20309;-72
2023/10/12 03:28:43;;;;;;;18.58;12.60;;;;;15.30;100830.00;;;;10415294;28;20308;-72
2023/10/12 03:33:53;;;;;;;22.52;12.40;;;;;15.30;100826.00;;;;10416991;28;20209;-71
2023/10/12 03:39:14;;;;;;;18.95;11.75;;;;;15.30;100821.00;;;;10411518;28;20304;-71
2023/10/12 03:44:48;;;;;;;17.45;11.55;;;;;15.30;100809.00;;;;10414866;28;20213;-70
2023/10/12 04:05:21;;;;;;;23.35;12.15;;;;;15.20;100792.00;;;;10419727;28;20222;-71
2023/10/12 04:21:16;;;;;;;19.77;12.93;;;;;15.10;100799.00;;;;10409313;28;20208;-71
2023/10/12 04:31:21;;;;;;;22.02;12.40;;;;;15.10;100774.00;;;;10417457;28;20384;-70
2023/10/12 04:46:48;;;;;;;26.63;13.18;;;;;15.00;100807.00;;;;10421793;28;20215;-72
2023/10/12 04:51:51;;;;;;;17.45;12.07;;;;;15.00;100800.00;;;;10415086;28;20237;-72
2023/10/12 05:12:20;;;;;;;22.25;13.23;;;;;15.00;100813.00;;;;10419778;28;20827;-71
2023/10/12 05:17:22;;;;;;;17.75;11.90;;;;;15.00;100799.00;;;;10423858;28;20794;-70
2023/10/12 05:22:24;;;;;;;20.67;12.38;;;;;15.00;100819.00;;;;10419250;28;20749;-71
2023/10/12 05:27:28;;;;;;;17.35;13.18;;;;;15.00;100811.00;;;;10411046;28;20219;-71
2023/10/12 05:32:36;;;;;;;25.85;14.15;;;;;15.00;100807.00;;;;10400212;28;20207;-71
2023/10/12 05:37:48;;;;;;;22.55;12.57;;;;;14.90;100820.00;;;;10415341;28;20246;-72
2023/10/12 05:42:50;;;;;;;19.13;13.50;;;;;14.90;100824.00;;;;10411264;28;20660;-70
2023/10/12 05:47:53;;;;;;;20.35;13.35;;;;;14.90;100827.00;;;;10409609;28;20227;-71
2023/10/12 05:53:01;;;;;;;20.73;13.48;;;;;14.90;100825.00;;;;10405845;28;20202;-71
2023/10/12 05:58:11;;;;;;;19.38;14.13;;;;;14.90;100820.00;;;;10444470;28;20782;-70
2023/10/12 06:03:16;;;;;;;19.92;12.88;;;;;14.90;100809.00;;;;10415699;28;20300;-70
2023/10/12 06:08:18;;;;;;;20.98;13.23;;;;;14.90;100844.00;;;;10416542;28;20325;-70
2023/10/12 06:13:30;;;;;;;20.67;12.20;;;;;14.90;100808.00;;;;10419167;28;20218;-71
2023/10/12 06:18:37;;;;;;;23.10;13.18;;;;;14.90;100807.00;;;;10401016;28;20214;-71
2023/10/12 06:23:39;;;;;;;18.25;11.77;;;;;14.90;100803.00;;;;10415740;28;20198;-70
2023/10/12 06:28:42;;;;;;;17.35;12.05;;;;;14.90;100828.00;;;;10412301;28;20624;-71
2023/10/12 06:33:44;;;;;;;14.77;10.85;;;;;14.90;100836.00;;;;10408258;28;20467;-70
2023/10/12 06:43:57;;;;;;;16.65;11.02;;;;;15.00;100844.00;;;;10412976;28;20206;-71
2023/10/12 06:49:00;;;;;;;17.90;10.63;;;;;15.10;100834.00;;;;10415592;28;20229;-72
2023/10/12 06:54:18;;;;;;;14.32;10.02;;;;;15.10;100836.00;;;;10398734;28;20273;-71
2023/10/12 06:59:21;;;;;;;13.68;9.88;;;;;15.10;100829.00;;;;10412293;28;20208;-71
2023/10/12 07:04:36;;;;;;;18.40;9.73;;;;;15.10;100837.00;;;;10413582;28;20255;-70
2023/10/12 07:09:40;;;;;;;13.93;10.02;;;;;15.10;100851.00;;;;10416832;28;20229;-70
2023/10/12 07:14:46;;;;;;;13.77;9.57;;;;;15.20;100857.00;;;;10417030;28;20198;-71
2023/10/12 07:19:53;;;;;;;14.75;9.70;;;;;15.20;100847.00;;;;10408032;28;20207;-72
2023/10/12 07:24:57;;;;;;;15.98;10.23;;;;;15.30;100852.00;;;;10419033;28;20884;-72
2023/10/12 07:30:14;;;;;;;16.17;8.80;;;;;15.40;100864.00;;;;10416232;28;20306;-70
2023/10/12 07:35:31;;;;;;;13.60;9.48;;;;;15.50;100871.00;;;;10418988;28;20205;-70
2023/10/12 07:40:40;;;;;;;13.40;9.13;;;;;15.70;100856.00;;;;10417238;28;20214;-69
2023/10/12 07:45:48;;;;;;;16.70;8.70;;;;;15.80;100835.00;;;;10414757;28;20899;-71
2023/10/12 07:50:50;;;;;;;12.65;8.82;;;;;16.00;100849.00;;;;10409598;28;20218;-70
2023/10/12 07:56:00;;;;;;;14.32;9.73;;;;;16.10;100856.00;;;;10413056;28;20206;-71
2023/10/12 08:11:39;;;;;;;15.15;9.75;;;;;17.00;100852.00;;;;10405427;28;20785;-71
2023/10/12 08:16:42;;;;;;;14.45;8.65;;;;;17.30;100864.00;;;;10409107;28;20260;-71
2023/10/12 08:21:44;;;;;;;17.55;9.02;;;;;17.70;100854.00;;;;10410983;28;20240;-71
2023/10/12 08:47:44;;;;;;;11.27;7.40;;;;;18.60;100879.00;;;;10404780;28;20314;-70
2023/10/12 08:52:50;;;;;;;9.40;6.80;;;;;18.40;100885.00;;;;10405454;28;20218;-72
2023/10/12 08:58:11;;;;;;;7.82;6.22;;;;;18.40;100883.00;;;;10412060;28;20206;-69
2023/10/12 09:03:24;;;;;;;11.52;7.53;;;;;18.30;100882.00;;;;10409082;28;20232;-71
2023/10/12 09:13:33;;;;;;;15.30;6.60;;;;;17.70;100872.00;;;;10414491;28;20210;-70
2023/10/12 09:18:46;;;;;;;11.15;7.43;;;;;17.50;100872.00;;;;10413698;28;20206;-70
2023/10/12 09:29:23;;;;;;;12.27;6.85;;;;;17.20;100890.00;;;;10413755;28;20234;-72
2023/10/12 09:34:42;;;;;;;10.52;7.35;;;;;17.10;100876.00;;;;10395930;28;20261;-72
2023/10/12 09:39:46;;;;;;;14.02;7.30;;;;;17.10;100882.00;;;;10416002;28;20585;-71
2023/10/12 09:45:01;;;;;;;16.17;7.60;;;;;17.10;100881.00;;;;10414343;28;20705;-72
2023/10/12 09:50:13;;;;;;;12.27;7.88;;;;;17.30;100889.00;;;;10415766;28;20222;-71
2023/10/12 09:55:25;;;;;;;15.27;8.27;;;;;17.50;100882.00;;;;10410347;28;20767;-70
2023/10/12 10:00:55;;;;;;;12.00;8.43;;;;;17.70;100884.00;;;;10416941;28;20210;-71
2023/10/12 10:06:02;;;;;;;15.70;9.20;;;;;18.00;100876.00;;;;10417782;28;20768;-70
2023/10/12 10:11:11;;;;;;;16.83;8.50;;;;;18.00;100863.00;;;;10412864;28;20210;-71
2023/10/12 10:16:17;;;;;;;16.70;9.13;;;;;17.70;100863.00;;;;10420624;28;20206;-72
2023/10/12 10:21:22;;;;;;;15.45;8.73;;;;;17.70;100837.00;;;;10417290;28;20245;-70
2023/10/12 10:26:31;;;;;;;13.27;8.90;;;;;17.90;100836.00;;;;10420966;28;20227;-73
2023/10/12 10:31:43;;;;;;;17.27;8.95;;;;;18.30;100848.00;;;;10428341;28;20217;-70
2023/10/12 10:36:52;;;;;;;15.45;9.43;;;;;19.10;100863.00;;;;10416224;28;20221;-72
2023/10/12 10:42:01;;;;;;;14.13;9.57;;;;;19.70;100874.00;;;;10420949;28;20218;-71
2023/10/12 10:47:09;;;;;;;21.75;10.13;;;;;19.90;100882.00;;;;10418248;28;20218;-71
2023/10/12 10:52:18;;;;;;;15.98;10.05;;;;;20.40;100870.00;;;;10415641;28;20290;-71
2023/10/12 10:57:24;;;;;;;17.30;9.35;;;;;20.30;100872.00;;;;10415943;28;21106;-71
2023/10/12 11:02:27;;;;;;;12.38;8.13;;;;;20.00;100877.00;;;;10416888;28;20219;-72
2023/10/12 11:07:29;;;;;;;15.60;9.25;;;;;19.70;100870.00;;;;10412867;28;20229;-71
2023/10/12 11:12:32;;;;;;;14.32;9.18;;;;;19.40;100870.00;;;;10414279;28;20207;-71
2023/10/12 11:17:56;;;;;;;17.75;10.00;;;;;19.40;100862.00;;;;10419198;28;20202;-70
2023/10/12 11:22:59;;;;;;;13.68;9.95;;;;;19.40;100862.00;;;;10420080;28;20226;-71
2023/10/12 11:28:26;;;;;;;13.60;9.32;;;;;19.30;100863.00;;;;10423731;28;20235;-70
2023/10/12 11:33:29;;;;;;;13.77;9.63;;;;;19.00;100863.00;;;;10413256;28;20575;-70
2023/10/12 11:38:31;;;;;;;14.48;8.50;;;;;18.80;100857.00;;;;10416664;28;20207;-70
2023/10/12 11:43:57;;;;;;;11.52;8.23;;;;;18.50;100861.00;;;;10407343;28;20217;-70
2023/10/12 11:49:08;;;;;;;12.77;8.20;;;;;18.00;100857.00;;;;10410188;28;20834;-72
2023/10/12 11:54:19;;;;;;;13.25;7.30;;;;;17.60;100861.00;;;;10407963;28;20284;-71
2023/10/12 11:59:27;;;;;;;15.23;8.48;;;;;17.50;100844.00;;;;10410654;28;20213;-73
2023/10/12 12:04:39;;;;;;;12.48;8.95;;;;;17.40;100852.00;;;;10421846;28;20218;-71
2023/10/12 12:10:01;;;;;;;14.80;9.07;;;;;17.30;100836.00;;;;10455905;28;20222;-72
2023/10/12 12:15:05;;;;;;;18.77;9.10;;;;;17.60;100825.00;;;;10408037;28;20912;-71
2023/10/12 12:20:08;;;;;;;12.45;7.80;;;;;17.90;100837.00;;;;10416638;28;20211;-72
2023/10/12 12:30:35;;;;;;;12.88;8.00;;;;;17.60;100837.00;;;;10405223;28;20852;-72
2023/10/12 12:36:00;;;;;;;19.25;8.60;;;;;17.30;100831.00;;;;10403846;28;20213;-71
2023/10/12 12:41:05;;;;;;;12.25;8.95;;;;;17.30;100831.00;;;;10405881;28;20210;-72
2023/10/12 12:46:07;;;;;;;14.68;8.93;;;;;17.30;100808.00;;;;10407073;28;20224;-71
2023/10/12 12:51:11;;;;;;;15.40;9.82;;;;;17.50;100810.00;;;;10405995;28;20202;-70
2023/10/12 12:56:16;;;;;;;22.23;10.73;;;;;17.60;100790.00;;;;10438039;28;20206;-71
2023/10/12 13:01:23;;;;;;;16.17;10.82;;;;;17.80;100783.00;;;;10428768;28;20210;-71
2023/10/12 13:06:26;;;;;;;16.27;10.90;;;;;17.60;100804.00;;;;10421004;28;20230;-71
2023/10/12 13:11:28;;;;;;;22.80;10.38;;;;;17.30;100809.00;;;;10425038;28;20222;-70
2023/10/12 13:16:29;;;;;;;20.17;11.20;;;;;17.40;100801.00;;;;10414504;28;20246;-71
2023/10/12 13:21:31;;;;;;;18.83;10.50;;;;;17.60;100805.00;;;;10412469;28;20222;-70
2023/10/12 13:26:34;;;;;;;19.85;11.25;;;;;17.40;100810.00;;;;10417198;28;20732;-70
2023/10/12 13:31:35;;;;;;;17.58;10.88;;;;;17.00;100808.00;;;;10415098;28;20363;-72
2023/10/12 13:36:39;;;;;;;22.17;12.43;;;;;17.00;100812.00;;;;10409396;28;20778;-70
2023/10/12 13:41:41;;;;;;;23.40;12.70;;;;;17.10;100809.00;;;;10409865;28;20300;-70
2023/10/12 13:46:45;;;;;;;17.02;12.10;;;;;17.30;100810.00;;;;10407621;28;20222;-70
2023/10/12 13:51:48;;;;;;;17.48;11.32;;;;;17.50;100806.00;;;;10409212;28;20202;-70
2023/10/12 13:56:56;;;;;;;15.23;11.27;;;;;17.70;100811.00;;;;10406758;28;20203;-71
2023/10/12 14:01:59;;;;;;;15.95;11.68;;;;;17.80;100813.00;;;;10408068;28;20679;-72
2023/10/12 14:07:01;;;;;;;15.30;11.90;;;;;17.50;100816.00;;;;10408961;28;20256;-71
2023/10/12 14:12:05;;;;;;;18.85;11.98;;;;;17.50;100818.00;;;;10410087;28;20831;-71
2023/10/12 14:17:07;;;;;;;18.73;12.82;;;;;17.60;100807.00;;;;10407664;28;20202;-72
2023/10/12 14:22:10;;;;;;;22.10;14.23;;;;;17.50;100805.00;;;;10410197;28;20229;-71
2023/10/12 14:27:11;;;;;;;22.08;14.60;;;;;17.70;100808.00;;;;10410678;28;20229;-70
2023/10/12 14:32:13;;;;;;;20.88;17.05;;;;;17.50;100807.00;;;;10410523;28;20317;-70
2023/10/12 14:37:15;;;;;;;24.40;15.13;;;;;17.40;100794.00;;;;10407052;28;20281;-71
2023/10/12 14:42:20;;;;;;;22.75;15.98;;;;;17.50;100786.00;;;;10413123;28;20672;-72
2023/10/12 14:47:22;;;;;;;19.00;14.45;;;;;17.30;100784.00;;;;10406666;28;20739;-71
2023/10/12 14:52:24;;;;;;;23.98;16.35;;;;;17.20;100789.00;;;;10405836;28;20505;-70
2023/10/12 14:57:28;;;;;;;22.75;14.98;;;;;17.20;100778.00;;;;10410312;28;20260;-69
2023/10/12 15:02:30;;;;;;;24.65;16.20;;;;;17.10;100777.00;;;;10413245;28;20231;-70
2023/10/12 15:07:37;;;;;;;23.48;17.17;;;;;17.20;100774.00;;;;10407422;28;20759;-70
2023/10/12 15:12:40;;;;;;;23.95;17.55;;;;;17.30;100771.00;;;;10405564;28;20378;-71
2023/10/12 15:17:42;;;;;;;25.48;16.77;;;;;17.30;100769.00;;;;10410183;28;20213;-71
2023/10/12 15:22:45;;;;;;;26.90;17.98;;;;;17.30;100784.00;;;;10407052;28;20226;-70
2023/10/12 15:27:49;;;;;;;24.73;16.38;;;;;17.30;100782.00;;;;10411221;28;20292;-70
2023/10/12 15:32:51;;;;;;;25.55;16.17;;;;;17.20;100781.00;;;;10407769;28;20446;-70
2023/10/12 15:37:58;;;;;;;26.05;16.48;;;;;17.10;100785.00;;;;10398994;28;20652;-69
2023/10/12 15:43:08;;;;;;;25.65;16.48;;;;;17.10;100791.00;;;;10414442;28;20881;-71
2023/10/12 15:48:13;;;;;;;26.95;17.17;;;;;17.10;100781.00;;;;10400482;28;20226;-71
2023/10/12 15:53:17;;;;;;;29.17;16.40;;;;;17.20;100775.00;;;;10411378;28;20303;-71
2023/10/12 15:58:20;;;;;;;24.88;16.63;;;;;17.20;100785.00;;;;10407260;28;20210;-70
2023/10/12 16:03:23;;;;;;;19.70;14.88;;;;;17.10;100788.00;;;;10414327;28;20210;-72
2023/10/12 16:08:25;;;;;;;22.85;15.85;;;;;17.10;100785.00;;;;10413762;28;20236;-71
2023/10/12 16:13:28;;;;;;;30.63;16.25;;;;;17.10;100789.00;;;;10410460;28;20215;-72
2023/10/12 16:18:30;;;;;;;26.02;16.85;;;;;17.10;100789.00;;;;10414100;28;20198;-70
2023/10/12 16:23:32;;;;;;;24.10;16.38;;;;;17.10;100796.00;;;;10409702;28;20202;-71
2023/10/12 16:28:34;;;;;;;24.77;18.10;;;;;17.10;100792.00;;;;10412126;28;20229;-70
2023/10/12 16:33:38;;;;;;;25.60;19.27;;;;;17.10;100798.00;;;;10397457;28;20690;-71
2023/10/12 16:38:42;;;;;;;26.05;18.95;;;;;17.10;100803.00;;;;10420651;28;20201;-71
2023/10/12 16:43:47;;;;;;;33.33;21.45;;;;;17.10;100796.00;;;;10414707;28;20214;-72
2023/10/12 16:48:50;;;;;;;31.52;22.38;;;;;17.10;100802.00;;;;10413633;28;20225;-70
2023/10/12 16:53:52;;;;;;;31.30;20.73;;;;;17.00;100804.00;;;;10417476;28;20202;-70
2023/10/12 16:58:54;;;;;;;36.40;21.67;;;;;17.00;100800.00;;;;10412179;28;20208;-70
2023/10/12 17:03:58;;;;;;;33.10;19.65;;;;;17.00;100806.00;;;;10425272;28;20318;-70
2023/10/12 17:09:01;;;;;;;31.25;20.00;;;;;17.00;100800.00;;;;10417081;28;20230;-71
2023/10/12 17:14:04;;;;;;;25.83;18.60;;;;;17.00;100798.00;;;;10415949;28;20206;-70
2023/10/12 17:19:06;;;;;;;26.30;19.33;;;;;17.00;100799.00;;;;10419264;28;20218;-71
2023/10/12 17:24:08;;;;;;;30.30;19.67;;;;;17.00;100796.00;;;;10412055;28;20253;-71
2023/10/12 17:29:10;;;;;;;26.50;18.67;;;;;17.00;100794.00;;;;10422191;28;20280;-72
2023/10/12 17:34:13;;;;;;;26.08;17.70;;;;;17.00;100802.00;;;;10414348;28;20282;-72
2023/10/12 17:39:18;;;;;;;30.75;19.90;;;;;17.10;100802.00;;;;10407145;28;20213;-72
2023/10/12 17:44:21;;;;;;;29.58;20.30;;;;;17.10;100807.00;;;;10415414;28;20975;-71
2023/10/12 17:49:23;;;;;;;25.40;18.67;;;;;17.10;100804.00;;;;10410217;28;20617;-70
2023/10/12 17:54:25;;;;;;;32.17;20.02;;;;;17.10;100807.00;;;;10414212;28;20340;-71
2023/10/12 17:59:27;;;;;;;30.13;19.63;;;;;17.20;100820.00;;;;10408030;28;20218;-71
2023/10/12 18:04:29;;;;;;;30.73;19.50;;;;;17.20;100818.00;;;;10412639;28;20203;-71
2023/10/12 18:09:31;;;;;;;25.67;20.08;;;;;17.20;100817.00;;;;10412498;28;20223;-70
2023/10/12 18:14:33;;;;;;;31.27;22.17;;;;;17.20;100819.00;;;;10411413;28;20257;-71
2023/10/12 18:19:35;;;;;;;27.63;21.77;;;;;17.30;100829.00;;;;10421481;28;20206;-70
2023/10/12 18:24:38;;;;;;;36.47;21.02;;;;;17.30;100825.00;;;;10405676;28;20584;-70
2023/10/12 18:29:41;;;;;;;35.20;21.63;;;;;17.30;100825.00;;;;10406093;28;20280;-71
2023/10/12 18:34:45;;;;;;;32.92;21.60;;;;;17.30;100827.00;;;;10407422;28;20206;-71
2023/10/12 18:39:48;;;;;;;31.30;21.30;;;;;17.30;100822.00;;;;10405822;28;20886;-72
2023/10/12 18:44:50;;;;;;;29.83;21.92;;;;;17.30;100827.00;;;;10417427;28;21005;-71
2023/10/12 18:49:56;;;;;;;31.40;21.25;;;;;17.30;100831.00;;;;10419480;28;20239;-72
2023/10/12 18:55:11;;;;;;;29.55;21.05;;;;;17.40;100839.00;;;;10422447;28;20205;-71
2023/10/12 19:00:16;;;;;;;33.42;21.88;;;;;17.40;100835.00;;;;10424780;28;20214;-71
2023/10/12 19:05:19;;;;;;;33.75;22.13;;;;;17.40;100836.00;;;;10416567;28;20278;-72
2023/10/12 19:10:20;;;;;;;28.17;20.38;;;;;17.30;100831.00;;;;10405183;28;20583;-71
2023/10/12 19:15:22;;;;;;;32.88;19.98;;;;;17.30;100846.00;;;;10412815;28;20306;-71
2023/10/12 19:20:24;;;;;;;23.20;18.75;;;;;17.30;100849.00;;;;10412064;28;20206;-71
2023/10/12 19:25:26;;;;;;;23.27;17.85;;;;;17.30;100843.00;;;;10417080;28;20234;-70
2023/10/12 19:30:29;;;;;;;26.67;19.05;;;;;17.20;100836.00;;;;10409627;28;20244;-70
2023/10/12 19:35:31;;;;;;;23.42;16.52;;;;;17.20;100828.00;;;;10415702;28;20198;-71
2023/10/12 19:40:33;;;;;;;22.17;14.32;;;;;17.30;100828.00;;;;10419709;28;20202;-71
2023/10/12 19:45:38;;;;;;;19.02;13.57;;;;;17.30;100812.00;;;;10413435;28;20202;-70
2023/10/12 19:50:40;;;;;;;22.02;14.48;;;;;17.30;100815.00;;;;10408374;28;20360;-71
2023/10/12 19:55:46;;;;;;;22.42;14.52;;;;;17.20;100815.00;;;;10409731;28;20242;-72
2023/10/12 20:00:48;;;;;;;22.20;15.27;;;;;17.20;100812.00;;;;10402921;28;20329;-71
2023/10/12 20:05:50;;;;;;;24.40;14.20;;;;;17.30;100808.00;;;;10413547;28;20914;-71
2023/10/12 20:10:53;;;;;;;18.83;13.73;;;;;17.30;100801.00;;;;10399508;28;20237;-70
2023/10/12 20:15:55;;;;;;;18.88;13.88;;;;;17.20;100803.00;;;;10413237;28;20203;-72
2023/10/12 20:20:58;;;;;;;19.63;13.18;;;;;17.20;100799.00;;;;10414959;28;20214;-71
2023/10/12 20:26:02;;;;;;;23.48;15.75;;;;;17.20;100807.00;;;;10408088;28;20297;-72
2023/10/12 20:31:04;;;;;;;24.08;15.25;;;;;17.30;100807.00;;;;10408082;28;20317;-71
2023/10/12 20:36:07;;;;;;;19.80;15.30;;;;;17.30;100804.00;;;;10408687;28;20208;-71
2023/10/12 20:41:10;;;;;;;18.27;14.27;;;;;17.30;100805.00;;;;10416023;28;20834;-70
2023/10/12 20:46:12;;;;;;;22.98;14.85;;;;;17.30;100802.00;;;;10391843;28;20220;-71
2023/10/12 20:51:15;;;;;;;18.13;13.95;;;;;17.30;100795.00;;;;10396808;28;20229;-72
2023/10/12 20:56:26;;;;;;;21.42;13.75;;;;;17.30;100802.00;;;;10405360;28;20210;-70
2023/10/12 21:01:29;;;;;;;29.05;14.15;;;;;17.20;100796.00;;;;10411547;28;20324;-70
2023/10/12 21:06:32;;;;;;;15.75;13.45;;;;;17.20;100795.00;;;;10406970;28;20219;-70
2023/10/12 21:11:34;;;;;;;19.13;12.88;;;;;17.20;100785.00;;;;10407870;28;20211;-70
2023/10/12 21:16:36;;;;;;;23.38;12.40;;;;;17.30;100777.00;;;;10416470;28;20237;-72
2023/10/12 21:21:38;;;;;;;18.98;11.25;;;;;17.30;100774.00;;;;10424456;28;20230;-71
2023/10/12 21:26:40;;;;;;;17.52;10.45;;;;;17.30;100781.00;;;;10424813;28;20288;-71
2023/10/12 21:31:42;;;;;;;16.50;10.18;;;;;17.30;100766.00;;;;10419720;28;20734;-71
2023/10/12 21:36:46;;;;;;;10.80;7.50;;;;;17.30;100772.00;;;;10418981;28;20194;-70
2023/10/12 21:41:47;;;;;;;16.02;8.63;;;;;17.30;100763.00;;;;10415989;28;20208;-72
2023/10/12 21:46:50;;;;;;;14.57;8.85;;;;;17.30;100754.00;;;;10420410;28;20207;-72
2023/10/12 21:51:54;;;;;;;13.43;9.77;;;;;17.30;100762.00;;;;10411031;28;20924;-71
2023/10/12 21:56:56;;;;;;;17.80;11.07;;;;;17.30;100759.00;;;;10419991;28;21029;-70
2023/10/12 22:02:04;;;;;;;17.65;11.27;;;;;17.40;100746.00;;;;10415181;28;20215;-72
2023/10/12 22:07:12;;;;;;;13.35;10.02;;;;;17.40;100751.00;;;;10402887;28;20209;-72
2023/10/12 22:12:19;;;;;;;14.73;10.32;;;;;17.40;100756.00;;;;10411626;28;20203;-70
2023/10/12 22:17:29;;;;;;;16.38;8.98;;;;;17.40;100751.00;;;;10417320;28;20211;-73
2023/10/12 22:22:35;;;;;;;14.02;9.43;;;;;17.40;100750.00;;;;10411123;28;20268;-71
2023/10/12 22:27:40;;;;;;;15.98;10.15;;;;;17.40;100748.00;;;;10416247;28;20913;-71
2023/10/12 22:32:43;;;;;;;13.13;8.75;;;;;17.40;100750.00;;;;10407814;28;20202;-70
2023/10/12 22:37:45;;;;;;;13.60;7.93;;;;;17.40;100745.00;;;;10419769;28;20226;-71
2023/10/12 22:42:47;;;;;;;15.25;9.18;;;;;17.40;100739.00;;;;10446600;28;20228;-72
2023/10/12 22:47:50;;;;;;;13.50;9.50;;;;;17.40;100745.00;;;;10420299;28;20298;-72
2023/10/12 22:52:51;;;;;;;15.68;9.57;;;;;17.40;100740.00;;;;10412934;28;20217;-72
2023/10/12 22:57:53;;;;;;;18.85;10.75;;;;;17.40;100741.00;;;;10414171;28;20251;-71
2023/10/12 23:02:55;;;;;;;17.63;10.38;;;;;17.40;100737.00;;;;10411591;28;20205;-71
2023/10/12 23:07:57;;;;;;;13.10;10.50;;;;;17.40;100731.00;;;;10409976;28;20757;-71
2023/10/12 23:13:04;;;;;;;17.75;10.45;;;;;17.40;100729.00;;;;10417349;28;20256;-72
2023/10/12 23:23:11;;;;;;;22.50;11.63;;;;;17.40;100738.00;;;;10411585;28;20234;-72
2023/10/12 23:28:17;;;;;;;18.73;11.25;;;;;17.40;100733.00;;;;10407794;28;20285;-71
2023/10/12 23:33:31;;;;;;;15.85;11.48;;;;;17.40;100738.00;;;;10416015;28;20210;-71
2023/10/12 23:38:38;;;;;;;17.58;11.77;;;;;17.30;100734.00;;;;10412075;28;20252;-72
2023/10/12 23:43:52;;;;;;;19.60;11.65;;;;;17.30;100732.00;;;;10414317;28;20295;-71
2023/10/12 23:48:57;;;;;;;18.75;12.75;;;;;17.30;100721.00;;;;10418008;28;20244;-73
2023/10/12 23:59:42;;;;;;;22.95;14.43;;;;;17.30;100716.00;;;;10301247;28;20289;-73
